createdAt,value
2022-12-08T00:01:22.866Z,-0.04
2022-12-08T00:03:50.884Z,-0.04
2022-12-08T00:06:47.716Z,-0.05
2022-12-08T00:09:22.879Z,-0.08
2022-12-08T00:12:00.434Z,-0.04
2022-12-08T00:14:40.596Z,0.04
2022-12-08T00:17:10.082Z,0.01
2022-12-08T00:19:39.270Z,0.01
2022-12-08T00:22:07.570Z,0.01
2022-12-08T00:24:39.472Z,-0.04
2022-12-08T00:27:08.411Z,-0.05
2022-12-08T00:29:35.412Z,-0.06
2022-12-08T00:32:02.539Z,-0.02
2022-12-08T00:34:31.004Z,-0.07
2022-12-08T00:36:58.072Z,-0.04
2022-12-08T00:39:25.036Z,-0.06
2022-12-08T00:42:11.460Z,-0.06
2022-12-08T00:44:39.687Z,0.03
2022-12-08T00:47:07.020Z,0.04
2022-12-08T00:49:33.990Z,-0.01
2022-12-08T00:52:01.230Z,-0.05
2022-12-08T00:54:28.544Z,-0.04
2022-12-08T00:56:55.591Z,-0.07
2022-12-08T00:59:22.586Z,-0.10
2022-12-08T01:01:49.975Z,-0.15
2022-12-08T01:04:18.878Z,-0.18
2022-12-08T01:06:46.619Z,-0.20
2022-12-08T01:09:15.195Z,-0.26
2022-12-08T01:11:42.231Z,-0.28
2022-12-08T01:14:09.210Z,-0.28
2022-12-08T01:16:37.225Z,-0.27
2022-12-08T01:19:04.730Z,-0.29
2022-12-08T01:21:31.757Z,-0.36
2022-12-08T01:24:02.887Z,-0.43
2022-12-08T01:26:29.931Z,-0.46
2022-12-08T01:28:56.950Z,-0.49
2022-12-08T01:31:24.406Z,-0.54
2022-12-08T01:33:51.563Z,-0.58
2022-12-08T01:36:27.439Z,-0.68
2022-12-08T01:38:58.044Z,-0.73
2022-12-08T01:41:31.075Z,-0.73
2022-12-08T01:44:04.045Z,-0.80
2022-12-08T01:46:33.044Z,-0.80
2022-12-08T01:49:15.668Z,-0.85
2022-12-08T01:51:49.349Z,-0.92
2022-12-08T01:54:17.176Z,-0.99
2022-12-08T01:57:11.670Z,-1.00
2022-12-08T01:59:44.632Z,-0.95
2022-12-08T02:02:12.514Z,-1.06
2022-12-08T02:04:39.936Z,-1.06
2022-12-08T02:07:10.045Z,-0.93
2022-12-08T02:09:38.386Z,-1.04
2022-12-08T02:12:05.982Z,-1.13
2022-12-08T02:14:34.571Z,-1.19
2022-12-08T02:17:39.184Z,-1.24
2022-12-08T02:20:30.104Z,-1.24
2022-12-08T02:23:11.983Z,-1.19
2022-12-08T02:25:51.889Z,-1.11
2022-12-08T02:28:56.445Z,-0.97
2022-12-08T02:31:35.679Z,-0.76
2022-12-08T02:34:09.086Z,-0.51
2022-12-08T02:36:39.114Z,-0.38
2022-12-08T02:39:25.133Z,-0.33
2022-12-08T02:42:06.073Z,-0.28
2022-12-08T02:44:48.779Z,-0.17
2022-12-08T02:47:19.289Z,-0.17
2022-12-08T02:49:46.439Z,-0.24
2022-12-08T02:52:13.365Z,-0.30
2022-12-08T02:54:45.717Z,-0.29
2022-12-08T02:57:33.731Z,-0.29
2022-12-08T03:00:13.356Z,-0.17
2022-12-08T03:03:05.250Z,-0.21
2022-12-08T03:05:35.251Z,-0.21
2022-12-08T03:08:31.333Z,-0.16
2022-12-08T03:11:08.860Z,-0.10
2022-12-08T03:13:46.378Z,-0.02
2022-12-08T03:16:18.602Z,0.04
2022-12-08T03:18:50.838Z,0.04
2022-12-08T03:21:20.569Z,0.05
2022-12-08T03:23:51.883Z,0.13
2022-12-08T03:26:28.989Z,0.17
2022-12-08T03:28:56.732Z,0.19
2022-12-08T03:31:27.975Z,0.17
2022-12-08T03:33:58.507Z,0.20
2022-12-08T03:36:26.162Z,0.10
2022-12-08T03:38:54.383Z,0.07
2022-12-08T03:41:24.711Z,0.10
2022-12-08T03:43:59.480Z,0.10
2022-12-08T03:48:55.671Z,0.12
2022-12-08T03:51:23.338Z,0.15
2022-12-08T03:53:51.148Z,0.16
2022-12-08T03:56:26.298Z,0.19
2022-12-08T03:58:54.418Z,0.18
2022-12-08T04:01:22.771Z,0.26
2022-12-08T04:03:50.449Z,0.33
2022-12-08T04:06:18.312Z,0.33
2022-12-08T04:08:45.417Z,0.47
2022-12-08T04:11:12.730Z,0.59
2022-12-08T04:13:41.075Z,0.52
2022-12-08T04:16:09.045Z,0.45
2022-12-08T04:18:36.351Z,0.48
2022-12-08T04:21:03.486Z,0.49
2022-12-08T04:23:30.519Z,0.53
2022-12-08T04:25:57.813Z,0.56
2022-12-08T04:28:24.833Z,0.57
2022-12-08T04:30:51.952Z,0.59
2022-12-08T04:33:19.229Z,0.61
2022-12-08T04:35:46.291Z,0.66
2022-12-08T04:38:14.041Z,0.67
2022-12-08T04:40:41.301Z,0.69
2022-12-08T04:43:08.390Z,0.74
2022-12-08T04:45:35.652Z,0.72
2022-12-08T04:48:04.648Z,0.75
2022-12-08T04:50:31.796Z,0.73
2022-12-08T04:52:58.834Z,0.77
2022-12-08T04:55:26.111Z,0.78
2022-12-08T04:57:53.168Z,0.79
2022-12-08T05:00:20.229Z,0.79
2022-12-08T05:02:47.678Z,0.76
2022-12-08T05:05:14.854Z,0.74
2022-12-08T05:07:42.121Z,0.79
2022-12-08T05:10:09.827Z,0.83
2022-12-08T05:12:36.830Z,0.81
2022-12-08T05:15:04.203Z,0.82
2022-12-08T05:17:31.463Z,0.82
2022-12-08T05:19:58.447Z,0.81
2022-12-08T05:22:25.488Z,0.80
2022-12-08T05:24:52.747Z,0.82
2022-12-08T05:27:19.726Z,0.81
2022-12-08T05:29:48.133Z,0.84
2022-12-08T05:32:15.421Z,0.96
2022-12-08T05:34:42.627Z,0.95
2022-12-08T05:37:09.801Z,0.97
2022-12-08T05:39:37.256Z,1.00
2022-12-08T05:42:04.463Z,1.04
2022-12-08T05:44:31.491Z,1.19
2022-12-08T05:46:58.782Z,1.09
2022-12-08T05:49:26.103Z,1.03
2022-12-08T05:51:53.100Z,1.05
2022-12-08T05:54:20.454Z,1.11
2022-12-08T05:56:47.478Z,1.09
2022-12-08T05:59:14.489Z,1.10
2022-12-08T06:01:42.614Z,1.11
2022-12-08T06:04:10.231Z,1.14
2022-12-08T06:06:38.542Z,1.19
2022-12-08T06:09:06.506Z,1.15
2022-12-08T06:11:33.949Z,1.36
2022-12-08T06:14:01.394Z,1.26
2022-12-08T06:16:29.100Z,1.29
2022-12-08T06:18:57.154Z,1.27
2022-12-08T06:21:24.984Z,1.35
2022-12-08T06:23:54.150Z,1.27
2022-12-08T06:26:22.491Z,1.25
2022-12-08T06:28:50.066Z,1.32
2022-12-08T06:31:20.035Z,1.35
2022-12-08T06:33:47.407Z,1.39
2022-12-08T06:36:16.308Z,1.38
2022-12-08T06:38:44.142Z,1.43
2022-12-08T06:41:12.781Z,1.46
2022-12-08T06:43:41.180Z,1.60
2022-12-08T06:46:10.775Z,1.64
2022-12-08T06:48:38.323Z,1.73
2022-12-08T06:51:13.483Z,1.82
2022-12-08T06:53:41.293Z,1.75
2022-12-08T06:56:09.442Z,1.82
2022-12-08T06:58:36.938Z,1.81
2022-12-08T07:01:06.614Z,1.80
2022-12-08T07:03:33.931Z,1.89
2022-12-08T07:06:04.207Z,1.95
2022-12-08T07:08:33.837Z,2.00
2022-12-08T07:11:08.647Z,2.06
2022-12-08T07:13:36.120Z,2.11
2022-12-08T07:16:08.077Z,2.05
2022-12-08T07:18:36.024Z,2.10
2022-12-08T07:21:06.272Z,2.11
2022-12-08T07:23:33.732Z,2.15
2022-12-08T07:26:02.815Z,2.09
2022-12-08T07:28:34.637Z,2.13
2022-12-08T07:31:02.553Z,2.20
2022-12-08T07:33:29.775Z,2.31
2022-12-08T07:35:58.532Z,2.40
2022-12-08T07:38:26.550Z,2.41
2022-12-08T07:40:54.441Z,2.48
2022-12-08T07:43:22.658Z,2.76
2022-12-08T07:45:50.533Z,2.80
2022-12-08T07:48:17.657Z,2.83
2022-12-08T07:50:45.897Z,2.84
2022-12-08T07:53:15.049Z,2.92
2022-12-08T07:55:43.051Z,3.00
2022-12-08T07:58:11.319Z,3.12
2022-12-08T08:00:38.642Z,3.20
2022-12-08T08:03:06.355Z,3.21
2022-12-08T08:05:33.441Z,3.26
2022-12-08T08:08:00.530Z,3.39
2022-12-08T08:10:28.111Z,3.38
2022-12-08T08:12:58.125Z,3.37
2022-12-08T08:15:25.674Z,3.46
2022-12-08T08:17:53.336Z,3.54
2022-12-08T08:20:21.466Z,3.52
2022-12-08T08:22:50.631Z,3.57
2022-12-08T08:25:19.175Z,3.69
2022-12-08T08:27:46.938Z,3.78
2022-12-08T08:30:19.881Z,3.77
2022-12-08T08:32:48.712Z,3.80
2022-12-08T08:35:16.697Z,3.91
2022-12-08T08:37:48.591Z,3.95
2022-12-08T08:40:18.314Z,4.01
2022-12-08T08:42:45.400Z,3.99
2022-12-08T08:45:12.446Z,4.07
2022-12-08T08:47:39.711Z,4.15
2022-12-08T08:50:08.028Z,4.13
2022-12-08T08:52:35.212Z,4.25
2022-12-08T08:55:02.489Z,4.31
2022-12-08T08:57:29.474Z,4.25
2022-12-08T08:59:56.471Z,4.19
2022-12-08T09:02:23.985Z,4.23
2022-12-08T09:04:51.063Z,4.26
2022-12-08T09:07:18.151Z,4.25
2022-12-08T09:09:45.443Z,4.19
2022-12-08T09:12:13.447Z,4.22
2022-12-08T09:14:40.466Z,4.37
2022-12-08T09:17:08.619Z,4.33
2022-12-08T09:19:35.637Z,4.39
2022-12-08T09:22:04.008Z,4.43
2022-12-08T09:24:31.336Z,4.34
2022-12-08T09:26:58.340Z,4.36
2022-12-08T09:29:26.216Z,4.35
2022-12-08T09:31:56.504Z,4.34
2022-12-08T09:34:24.407Z,4.31
2022-12-08T09:36:51.409Z,4.30
2022-12-08T09:39:18.740Z,4.34
2022-12-08T09:41:50.269Z,4.36
2022-12-08T09:44:38.959Z,4.41
2022-12-08T09:47:18.543Z,4.67
2022-12-08T09:49:53.182Z,4.72
2022-12-08T09:52:41.447Z,4.74
2022-12-08T09:55:19.325Z,4.70
2022-12-08T09:57:57.792Z,4.63
2022-12-08T10:00:24.900Z,4.73
2022-12-08T10:02:52.574Z,4.74
2022-12-08T10:05:21.430Z,4.74
2022-12-08T10:07:59.495Z,4.80
2022-12-08T10:10:42.334Z,4.73
2022-12-08T10:13:38.610Z,4.65
2022-12-08T10:16:28.023Z,4.65
2022-12-08T10:19:19.696Z,4.63
2022-12-08T10:21:47.549Z,4.68
2022-12-08T10:24:34.629Z,4.68
2022-12-08T10:27:02.460Z,4.80
2022-12-08T10:29:29.772Z,4.85
2022-12-08T10:31:59.858Z,4.97
2022-12-08T10:34:27.363Z,5.01
2022-12-08T10:37:00.592Z,4.94
2022-12-08T10:39:43.936Z,4.88
2022-12-08T10:42:14.202Z,4.94
2022-12-08T10:45:02.299Z,4.83
2022-12-08T10:47:35.038Z,4.80
2022-12-08T10:50:10.144Z,4.78
2022-12-08T10:52:40.736Z,4.78
2022-12-08T10:55:19.587Z,4.85
2022-12-08T10:57:49.066Z,4.92
2022-12-08T11:00:20.117Z,4.89
2022-12-08T11:02:53.403Z,4.88
2022-12-08T11:05:22.637Z,4.73
2022-12-08T11:07:54.987Z,4.75
2022-12-08T11:10:32.366Z,4.72
2022-12-08T11:13:05.952Z,4.69
2022-12-08T11:15:39.960Z,4.72
2022-12-08T11:18:10.496Z,4.60
2022-12-08T11:20:41.441Z,4.68
2022-12-08T11:23:26.439Z,4.57
2022-12-08T11:25:58.840Z,4.46
2022-12-08T11:28:25.979Z,4.52
2022-12-08T11:31:00.687Z,4.68
2022-12-08T11:33:29.008Z,4.70
2022-12-08T11:36:02.370Z,4.69
2022-12-08T11:38:31.214Z,4.62
2022-12-08T11:41:15.786Z,4.60
2022-12-08T11:44:05.603Z,4.57
2022-12-08T11:46:57.019Z,4.65
2022-12-08T11:49:34.451Z,4.71
2022-12-08T11:52:13.282Z,4.87
2022-12-08T11:54:46.687Z,4.86
2022-12-08T11:57:20.818Z,4.86
2022-12-08T11:59:54.604Z,4.86
2022-12-08T12:02:26.660Z,4.95
2022-12-08T12:05:05.338Z,4.94
2022-12-08T12:07:44.295Z,4.90
2022-12-08T12:10:20.416Z,4.77
2022-12-08T12:13:09.270Z,4.61
2022-12-08T12:16:10.581Z,4.75
2022-12-08T12:19:09.909Z,4.66
2022-12-08T12:21:43.453Z,4.57
2022-12-08T12:24:35.964Z,4.48
2022-12-08T12:27:15.807Z,4.42
2022-12-08T12:29:56.594Z,4.44
2022-12-08T12:34:57.179Z,4.34
2022-12-08T12:37:42.616Z,4.29
2022-12-08T12:40:20.339Z,4.33
2022-12-08T12:43:10.448Z,4.22
2022-12-08T12:45:43.484Z,4.13
2022-12-08T12:48:22.507Z,4.34
2022-12-08T12:50:51.019Z,4.30
2022-12-08T12:53:18.924Z,4.21
2022-12-08T12:55:46.065Z,4.15
2022-12-08T12:58:27.523Z,4.22
2022-12-08T13:01:10.182Z,4.05
2022-12-08T13:03:41.774Z,4.02
2022-12-08T13:06:15.016Z,4.05
2022-12-08T13:08:51.470Z,4.04
2022-12-08T13:11:19.124Z,4.05
2022-12-08T13:13:57.457Z,4.04
2022-12-08T13:16:31.134Z,4.02
2022-12-08T13:19:03.742Z,3.87
2022-12-08T13:21:34.954Z,3.77
2022-12-08T13:24:13.530Z,3.79
2022-12-08T13:26:47.983Z,3.86
2022-12-08T13:29:24.672Z,4.02
2022-12-08T13:31:52.299Z,3.98
2022-12-08T13:34:45.268Z,3.86
2022-12-08T13:37:13.263Z,3.82
2022-12-08T13:39:40.177Z,3.74
2022-12-08T13:42:13.359Z,3.81
2022-12-08T13:45:39.763Z,3.88
2022-12-08T13:48:35.341Z,3.75
2022-12-08T13:57:26.559Z,3.73
2022-12-08T13:59:53.618Z,3.60
2022-12-08T14:02:30.734Z,3.69
2022-12-08T14:07:48.367Z,3.60
2022-12-08T14:10:23.393Z,3.55
2022-12-08T14:13:02.980Z,3.47
2022-12-08T14:15:37.631Z,3.55
2022-12-08T14:18:07.400Z,3.59
2022-12-08T14:20:57.682Z,3.47
2022-12-08T14:23:22.691Z,3.35
2022-12-08T14:25:50.099Z,3.36
2022-12-08T14:28:17.286Z,3.50
2022-12-08T14:30:44.670Z,3.51
2022-12-08T14:33:15.355Z,3.49
2022-12-08T14:35:42.507Z,3.48
2022-12-08T14:38:15.336Z,3.49
2022-12-08T14:40:44.908Z,3.40
2022-12-08T14:43:18.626Z,3.43
2022-12-08T14:45:45.851Z,3.38
2022-12-08T14:48:27.956Z,3.42
2022-12-08T14:51:07.033Z,3.45
2022-12-08T14:53:39.719Z,3.47
2022-12-08T14:56:16.331Z,3.46
2022-12-08T14:58:43.676Z,3.45
2022-12-08T15:01:16.938Z,3.41
2022-12-08T15:03:50.756Z,3.44
2022-12-08T15:06:21.376Z,3.46
2022-12-08T15:08:58.831Z,3.44
2022-12-08T15:11:33.434Z,3.40
2022-12-08T15:14:00.438Z,3.43
2022-12-08T15:16:36.909Z,3.49
2022-12-08T15:19:28.321Z,3.50
2022-12-08T15:21:58.248Z,3.42
2022-12-08T15:24:29.704Z,3.37
2022-12-08T15:26:57.159Z,3.35
2022-12-08T15:29:29.429Z,3.39
2022-12-08T15:32:00.024Z,3.36
2022-12-08T15:34:27.261Z,3.40
2022-12-08T15:36:55.087Z,3.39
2022-12-08T15:39:48.766Z,3.40
2022-12-08T15:42:15.853Z,3.32
2022-12-08T15:44:43.445Z,3.33
2022-12-08T15:47:21.631Z,3.21
2022-12-08T15:49:50.573Z,3.23
2022-12-08T15:52:20.342Z,3.24
2022-12-08T15:54:49.058Z,3.25
2022-12-08T15:57:53.492Z,3.26
2022-12-08T16:03:59.734Z,3.30
2022-12-08T16:09:12.183Z,3.18
2022-12-08T16:12:08.357Z,3.21
2022-12-08T16:17:25.182Z,3.19
2022-12-08T16:19:52.437Z,3.18
2022-12-08T16:25:19.194Z,3.10
2022-12-08T16:30:37.419Z,3.19
2022-12-08T16:33:05.021Z,3.11
2022-12-08T16:35:32.261Z,3.16
2022-12-08T16:37:59.623Z,3.15
2022-12-08T16:40:26.619Z,3.14
2022-12-08T16:42:53.614Z,3.05
2022-12-08T16:45:21.004Z,3.04
2022-12-08T16:47:56.252Z,3.02
2022-12-08T16:50:29.343Z,3.00
2022-12-08T16:53:00.203Z,3.00
2022-12-08T16:55:27.971Z,2.95
2022-12-08T16:57:55.402Z,2.92
2022-12-08T17:00:24.891Z,2.97
2022-12-08T17:02:52.816Z,2.85
2022-12-08T17:05:23.091Z,2.86
2022-12-08T17:07:51.597Z,2.77
2022-12-08T17:10:23.079Z,2.84
2022-12-08T17:12:50.488Z,2.87
2022-12-08T17:15:20.232Z,2.93
2022-12-08T17:17:47.678Z,2.97
2022-12-08T17:20:17.826Z,3.05
2022-12-08T17:22:45.230Z,2.96
2022-12-08T17:25:12.638Z,2.90
2022-12-08T17:27:40.617Z,3.00
2022-12-08T17:30:09.858Z,2.97
2022-12-08T17:32:39.988Z,3.00
2022-12-08T17:35:07.733Z,3.04
2022-12-08T17:37:35.488Z,3.10
2022-12-08T17:40:03.171Z,3.20
2022-12-08T17:42:30.394Z,3.17
2022-12-08T17:44:57.397Z,3.10
2022-12-08T17:47:24.757Z,3.07
2022-12-08T17:49:51.917Z,3.08
2022-12-08T17:52:18.916Z,3.04
2022-12-08T17:54:46.230Z,3.01
2022-12-08T17:57:13.273Z,3.12
2022-12-08T17:59:40.327Z,3.17
2022-12-08T18:02:10.807Z,3.15
2022-12-08T18:04:38.214Z,3.13
2022-12-08T18:07:05.316Z,3.10
2022-12-08T18:09:33.696Z,3.09
2022-12-08T18:12:01.072Z,3.07
2022-12-08T18:14:28.221Z,3.05
2022-12-08T18:16:55.430Z,3.11
2022-12-08T18:19:22.983Z,3.04
2022-12-08T18:21:50.049Z,3.02
2022-12-08T18:24:22.036Z,3.07
2022-12-08T18:26:52.158Z,3.11
2022-12-08T18:29:21.029Z,3.22
2022-12-08T18:31:48.453Z,3.35
2022-12-08T18:34:15.826Z,3.31
2022-12-08T18:36:42.815Z,3.21
2022-12-08T18:39:24.601Z,3.24
2022-12-08T18:41:52.775Z,3.26
2022-12-08T18:44:20.169Z,3.28
2022-12-08T18:46:47.328Z,3.27
2022-12-08T18:49:16.995Z,3.26
2022-12-08T18:51:44.512Z,3.25
2022-12-08T18:54:13.113Z,3.32
2022-12-08T18:56:40.766Z,3.30
2022-12-08T18:59:10.942Z,3.24
2022-12-08T19:01:39.869Z,3.34
2022-12-08T19:06:56.683Z,3.36
2022-12-08T19:09:26.600Z,3.41
2022-12-08T19:11:54.055Z,3.48
2022-12-08T19:14:27.930Z,3.40
2022-12-08T19:16:57.605Z,3.35
2022-12-08T19:19:25.837Z,3.24
2022-12-08T19:21:52.861Z,3.29
2022-12-08T19:24:20.503Z,3.29
2022-12-08T19:26:47.572Z,3.38
2022-12-08T19:29:14.703Z,3.29
2022-12-08T19:31:42.360Z,3.34
2022-12-08T19:34:11.880Z,3.20
2022-12-08T19:36:42.559Z,3.14
2022-12-08T19:39:40.404Z,3.07
2022-12-08T19:42:34.069Z,3.10
2022-12-08T19:45:06.977Z,3.02
2022-12-08T19:47:34.292Z,3.13
2022-12-08T19:50:20.125Z,3.14
2022-12-08T19:52:47.245Z,3.09
2022-12-08T19:55:14.701Z,3.00
2022-12-08T19:57:41.718Z,3.10
2022-12-08T20:00:10.850Z,3.20
2022-12-08T20:02:38.898Z,3.13
2022-12-08T20:05:06.864Z,3.12
2022-12-08T20:07:34.477Z,3.07
2022-12-08T20:10:07.131Z,3.08
2022-12-08T20:12:34.261Z,2.99
2022-12-08T20:15:01.625Z,3.04
2022-12-08T20:17:28.656Z,2.95
2022-12-08T20:19:55.722Z,2.91
2022-12-08T20:22:23.029Z,2.83
2022-12-08T20:24:58.253Z,2.85
2022-12-08T20:27:26.075Z,2.89
2022-12-08T20:29:53.097Z,2.90
2022-12-08T20:32:20.199Z,2.80
2022-12-08T20:34:47.534Z,2.78
2022-12-08T20:37:14.621Z,2.76
2022-12-08T20:39:41.654Z,2.92
2022-12-08T20:42:13.085Z,2.93
2022-12-08T20:44:44.242Z,2.95
2022-12-08T20:47:13.165Z,2.80
2022-12-08T20:49:40.336Z,2.81
2022-12-08T20:52:08.046Z,2.92
2022-12-08T20:54:37.075Z,2.84
2022-12-08T20:57:04.387Z,2.83
2022-12-08T20:59:31.571Z,2.90
2022-12-08T21:02:00.410Z,2.88
2022-12-08T21:04:28.062Z,2.86
2022-12-08T21:06:55.421Z,2.86
2022-12-08T21:09:22.909Z,2.95
2022-12-08T21:11:50.136Z,2.94
2022-12-08T21:14:17.337Z,2.89
2022-12-08T21:16:44.685Z,2.96
2022-12-08T21:19:12.209Z,2.99
2022-12-08T21:21:39.364Z,2.90
2022-12-08T21:24:07.220Z,2.85
2022-12-08T21:26:34.499Z,2.89
2022-12-08T21:29:01.700Z,2.79
2022-12-08T21:31:31.807Z,2.85
2022-12-08T21:34:00.961Z,2.69
2022-12-08T21:36:30.164Z,2.66
2022-12-08T21:39:02.459Z,2.69
2022-12-08T21:41:49.091Z,2.68
2022-12-08T21:44:18.730Z,2.73
2022-12-08T21:46:46.564Z,2.79
2022-12-08T21:49:13.889Z,2.88
2022-12-08T21:51:42.327Z,2.93
2022-12-08T21:54:16.739Z,2.86
2022-12-08T21:56:47.233Z,2.75
2022-12-08T21:59:15.396Z,2.69
2022-12-08T22:01:45.637Z,2.62
2022-12-08T22:04:17.330Z,2.66
2022-12-08T22:06:44.592Z,2.74
2022-12-08T22:09:13.524Z,2.70
2022-12-08T22:11:41.788Z,2.72
2022-12-08T22:14:14.169Z,2.75
2022-12-08T22:16:43.827Z,2.79
2022-12-08T22:19:11.376Z,2.76
2022-12-08T22:21:38.567Z,2.70
2022-12-08T22:24:06.479Z,2.68
2022-12-08T22:26:34.007Z,2.71
2022-12-08T22:29:01.313Z,2.70
2022-12-08T22:31:28.713Z,2.70
2022-12-08T22:33:55.842Z,2.70
2022-12-08T22:36:24.949Z,2.72
2022-12-08T22:38:53.936Z,2.65
2022-12-08T22:41:21.828Z,2.69
2022-12-08T22:43:50.207Z,2.77
2022-12-08T22:46:20.920Z,2.75
2022-12-08T22:48:49.088Z,2.64
2022-12-08T22:51:16.722Z,2.51
2022-12-08T22:53:44.775Z,2.53
2022-12-08T22:56:13.059Z,2.47
2022-12-08T22:58:41.847Z,2.46
2022-12-08T23:01:09.441Z,2.43
2022-12-08T23:03:36.779Z,2.46
2022-12-08T23:06:12.899Z,2.47
2022-12-08T23:08:40.724Z,2.54
2022-12-08T23:11:07.782Z,2.50
2022-12-08T23:13:34.844Z,2.50
2022-12-08T23:16:02.316Z,2.52
2022-12-08T23:18:29.362Z,2.58
2022-12-08T23:20:56.347Z,2.57
2022-12-08T23:23:23.621Z,2.51
2022-12-08T23:25:50.632Z,2.49
2022-12-08T23:28:17.627Z,2.46
2022-12-08T23:30:44.892Z,2.52
2022-12-08T23:33:12.131Z,2.50
2022-12-08T23:35:39.413Z,2.55
2022-12-08T23:38:06.771Z,2.67
2022-12-08T23:40:34.233Z,2.67
2022-12-08T23:43:01.284Z,2.65
2022-12-08T23:45:28.588Z,2.56
2022-12-08T23:47:55.720Z,2.49
2022-12-08T23:50:22.973Z,2.43
2022-12-08T23:52:50.449Z,2.39
2022-12-08T23:55:17.511Z,2.39
2022-12-08T23:57:44.597Z,2.39
